createdAt,value
2017-10-27T00:00:58.258Z,1011.3
2017-10-27T00:02:08.808Z,1011.28
2017-10-27T00:03:19.335Z,1011.24
2017-10-27T00:04:29.633Z,1011.29
2017-10-27T00:05:39.605Z,1011.21
2017-10-27T00:06:49.910Z,1011.25
2017-10-27T00:08:00.459Z,1011.33
2017-10-27T00:09:10.423Z,1011.2
2017-10-27T00:10:20.730Z,1011.2
2017-10-27T00:11:31.026Z,1011.24
2017-10-27T00:12:41.325Z,1011.26
2017-10-27T00:13:51.552Z,1011.2
2017-10-27T00:15:01.849Z,1011.11
2017-10-27T00:16:12.139Z,1011.17
2017-10-27T00:17:22.434Z,1011.21
2017-10-27T00:18:32.721Z,1011.28
2017-10-27T00:19:43.265Z,1011.33
2017-10-27T00:20:53.236Z,1011.18
2017-10-27T00:22:03.522Z,1011.15
2017-10-27T00:23:13.818Z,1011.12
2017-10-27T00:24:23.786Z,1011.02
2017-10-27T00:25:34.322Z,1011.09
2017-10-27T00:26:44.634Z,1011
2017-10-27T00:27:54.923Z,1011.04
2017-10-27T00:29:04.565Z,1011.04
2017-10-27T00:30:14.853Z,1011.03
2017-10-27T00:31:25.390Z,1010.94
2017-10-27T00:32:35.692Z,1011.05
2017-10-27T00:33:46.015Z,1011.04
2017-10-27T00:34:56.321Z,1010.93
2017-10-27T00:36:06.606Z,1010.98
2017-10-27T00:37:16.919Z,1010.94
2017-10-27T00:38:27.211Z,1010.93
2017-10-27T00:39:37.514Z,1011.07
2017-10-27T00:40:48.511Z,1011.01
2017-10-27T00:41:58.821Z,1011
2017-10-27T00:43:09.419Z,1011.01
2017-10-27T00:44:19.713Z,1011
2017-10-27T00:45:30.006Z,1011.06
2017-10-27T00:46:40.288Z,1010.97
2017-10-27T00:47:50.594Z,1010.91
2017-10-27T00:49:01.206Z,1010.97
2017-10-27T00:50:11.185Z,1010.86
2017-10-27T00:51:21.489Z,1010.92
2017-10-27T00:52:31.782Z,1010.85
2017-10-27T00:53:41.746Z,1010.88
2017-10-27T00:54:52.338Z,1010.88
2017-10-27T00:56:02.309Z,1010.88
2017-10-27T00:57:12.304Z,1010.78
2017-10-27T00:58:22.604Z,1010.76
2017-10-27T00:59:32.907Z,1010.72
2017-10-27T01:00:43.446Z,1010.74
2017-10-27T01:01:53.420Z,1010.69
2017-10-27T01:03:03.730Z,1010.73
2017-10-27T01:04:14.033Z,1010.7
2017-10-27T01:05:24.327Z,1010.65
2017-10-27T01:06:34.555Z,1010.67
2017-10-27T01:07:44.852Z,1010.71
2017-10-27T01:08:54.809Z,1010.59
2017-10-27T01:10:05.096Z,1010.61
2017-10-27T01:11:15.064Z,1010.61
2017-10-27T01:12:25.609Z,1010.57
2017-10-27T01:13:35.901Z,1010.56
2017-10-27T01:14:46.192Z,1010.51
2017-10-27T01:15:56.162Z,1010.52
2017-10-27T01:17:06.458Z,1010.52
2017-10-27T01:18:17.001Z,1010.53
2017-10-27T01:19:27.298Z,1010.51
2017-10-27T01:20:36.937Z,1010.54
2017-10-27T01:21:47.247Z,1010.5
2017-10-27T01:22:57.537Z,1010.54
2017-10-27T01:24:08.115Z,1010.53
2017-10-27T01:25:17.757Z,1010.47
2017-10-27T01:26:28.055Z,1010.52
2017-10-27T01:27:38.018Z,1010.52
2017-10-27T01:28:48.312Z,1010.45
2017-10-27T01:29:58.865Z,1010.47
2017-10-27T01:31:09.158Z,1010.58
2017-10-27T01:32:19.453Z,1010.31
2017-10-27T01:33:29.743Z,1010.33
2017-10-27T01:34:40.037Z,1010.38
2017-10-27T01:35:50.577Z,1010.39
2017-10-27T01:37:00.869Z,1010.41
2017-10-27T01:38:10.838Z,1010.35
2017-10-27T01:39:20.945Z,1010.38
2017-10-27T01:40:30.924Z,1010.31
2017-10-27T01:41:41.156Z,1010.42
2017-10-27T01:42:51.450Z,1010.32
2017-10-27T01:44:01.736Z,1010.31
2017-10-27T01:45:12.051Z,1010.24
2017-10-27T01:46:22.344Z,1010.17
2017-10-27T01:47:32.907Z,1010.19
2017-10-27T01:48:43.200Z,1010.14
2017-10-27T01:49:53.163Z,1010.13
2017-10-27T01:51:03.491Z,1010.19
2017-10-27T01:52:13.780Z,1010.19
2017-10-27T01:53:24.329Z,1009.98
2017-10-27T01:54:34.629Z,1009.98
2017-10-27T01:55:44.955Z,1010.01
2017-10-27T01:56:55.235Z,1010.04
2017-10-27T01:58:05.228Z,1009.98
2017-10-27T01:59:15.805Z,1009.97
2017-10-27T02:00:26.119Z,1010.07
2017-10-27T02:01:36.436Z,1010.06
2017-10-27T02:02:46.438Z,1010.05
2017-10-27T02:03:56.418Z,1009.97
2017-10-27T02:05:06.955Z,1010.18
2017-10-27T02:06:16.943Z,1009.98
2017-10-27T02:07:26.581Z,1010.07
2017-10-27T02:08:36.878Z,1010.11
2017-10-27T02:09:47.167Z,1010.16
2017-10-27T02:10:57.383Z,1009.93
2017-10-27T02:12:07.676Z,1009.92
2017-10-27T02:13:17.975Z,1009.89
2017-10-27T02:14:28.264Z,1009.94
2017-10-27T02:15:38.592Z,1009.89
2017-10-27T02:16:49.425Z,1009.91
2017-10-27T02:17:59.714Z,1009.86
2017-10-27T02:19:09.685Z,1009.94
2017-10-27T02:20:19.661Z,1009.78
2017-10-27T02:21:29.954Z,1009.74
2017-10-27T02:22:40.487Z,1009.81
2017-10-27T02:23:50.452Z,1009.79
2017-10-27T02:25:00.749Z,1009.73
2017-10-27T02:26:10.713Z,1009.7
2017-10-27T02:27:20.683Z,1009.79
2017-10-27T02:28:31.224Z,1009.72
2017-10-27T02:29:41.515Z,1009.75
2017-10-27T02:30:51.504Z,1009.7
2017-10-27T02:32:01.489Z,1009.8
2017-10-27T02:33:11.462Z,1009.57
2017-10-27T02:34:22.013Z,1009.66
2017-10-27T02:35:32.310Z,1009.65
2017-10-27T02:36:42.598Z,1009.68
2017-10-27T02:37:52.581Z,1009.6
2017-10-27T02:39:02.548Z,1009.59
2017-10-27T02:40:13.100Z,1009.65
2017-10-27T02:41:23.086Z,1009.59
2017-10-27T02:42:33.386Z,1009.59
2017-10-27T02:43:43.376Z,1009.67
2017-10-27T02:44:53.677Z,1009.81
2017-10-27T02:46:03.931Z,1009.65
2017-10-27T02:47:14.233Z,1009.63
2017-10-27T02:48:24.528Z,1009.7
2017-10-27T02:49:34.837Z,1009.72
2017-10-27T02:50:45.142Z,1009.54
2017-10-27T02:51:55.736Z,1009.62
2017-10-27T02:53:06.029Z,1009.69
2017-10-27T02:54:16.320Z,1009.56
2017-10-27T02:55:26.647Z,1009.46
2017-10-27T02:56:36.280Z,1009.55
2017-10-27T02:57:46.827Z,1009.58
2017-10-27T02:58:57.107Z,1009.5
2017-10-27T03:00:07.103Z,1009.4
2017-10-27T03:01:17.063Z,1009.44
2017-10-27T03:02:27.363Z,1009.43
2017-10-27T03:03:37.958Z,1009.38
2017-10-27T03:04:48.266Z,1009.41
2017-10-27T03:05:58.230Z,1009.46
2017-10-27T03:07:08.195Z,1009.41
2017-10-27T03:08:18.508Z,1009.44
2017-10-27T03:09:29.062Z,1009.34
2017-10-27T03:10:39.028Z,1009.36
2017-10-27T03:11:48.998Z,1009.28
2017-10-27T03:12:59.294Z,1009.22
2017-10-27T03:14:09.582Z,1009.25
2017-10-27T03:15:20.138Z,1009.42
2017-10-27T03:16:30.429Z,1009.2
2017-10-27T03:17:40.710Z,1009.07
2017-10-27T03:18:50.996Z,1009.19
2017-10-27T03:20:01.292Z,1009.13
2017-10-27T03:21:11.185Z,1009.16
2017-10-27T03:22:21.498Z,1009.09
2017-10-27T03:23:31.795Z,1009.16
2017-10-27T03:24:42.100Z,1009.06
2017-10-27T03:25:52.077Z,1009.06
2017-10-27T03:27:02.298Z,1009.01
2017-10-27T03:28:12.589Z,1009.06
2017-10-27T03:29:22.895Z,1009.01
2017-10-27T03:30:33.193Z,1009.07
2017-10-27T03:31:43.484Z,1009.02
2017-10-27T03:32:54.026Z,1009.08
2017-10-27T03:34:04.316Z,1009.04
2017-10-27T03:35:14.603Z,1009.05
2017-10-27T03:36:24.901Z,1009.01
2017-10-27T03:37:35.191Z,1009.01
2017-10-27T03:38:45.401Z,1009.01
2017-10-27T03:39:55.370Z,1008.95
2017-10-27T03:41:05.674Z,1008.97
2017-10-27T03:42:15.969Z,1008.94
2017-10-27T03:43:26.266Z,1008.93
2017-10-27T03:44:36.805Z,1008.99
2017-10-27T03:45:47.099Z,1009.07
2017-10-27T03:46:57.407Z,1008.99
2017-10-27T03:48:07.399Z,1008.99
2017-10-27T03:49:17.686Z,1008.98
2017-10-27T03:50:27.900Z,1008.91
2017-10-27T03:51:38.207Z,1008.94
2017-10-27T03:52:48.498Z,1009.06
2017-10-27T03:53:58.786Z,1009.12
2017-10-27T03:55:09.080Z,1009.02
2017-10-27T03:56:19.674Z,1008.93
2017-10-27T03:57:29.642Z,1009.01
2017-10-27T03:58:39.625Z,1008.9
2017-10-27T03:59:49.923Z,1008.93
2017-10-27T04:01:00.216Z,1008.92
2017-10-27T04:02:10.770Z,1008.98
2017-10-27T04:03:21.076Z,1008.92
2017-10-27T04:04:31.376Z,1008.92
2017-10-27T04:05:41.351Z,1008.92
2017-10-27T04:06:51.309Z,1008.96
2017-10-27T04:08:01.516Z,1008.89
2017-10-27T04:09:11.834Z,1008.92
2017-10-27T04:10:22.153Z,1008.94
2017-10-27T04:11:32.472Z,1009.07
2017-10-27T04:12:42.757Z,1009.01
2017-10-27T04:13:52.978Z,1008.96
2017-10-27T04:15:02.936Z,1009.02
2017-10-27T04:16:13.238Z,1008.94
2017-10-27T04:17:23.204Z,1008.98
2017-10-27T04:18:32.838Z,1008.99
2017-10-27T04:19:43.388Z,1008.99
2017-10-27T04:20:53.693Z,1008.98
2017-10-27T04:22:03.687Z,1008.99
2017-10-27T04:23:13.993Z,1008.97
2017-10-27T04:24:24.287Z,1008.91
2017-10-27T04:25:34.850Z,1008.87
2017-10-27T04:26:44.830Z,1008.93
2017-10-27T04:27:55.133Z,1008.91
2017-10-27T04:29:05.094Z,1009.01
2017-10-27T04:30:15.383Z,1008.95
2017-10-27T04:31:25.980Z,1008.99
2017-10-27T04:32:36.265Z,1009.01
2017-10-27T04:33:46.562Z,1008.91
2017-10-27T04:34:56.223Z,1008.9
2017-10-27T04:36:06.196Z,1008.93
2017-10-27T04:37:16.108Z,1008.93
2017-10-27T04:38:26.405Z,1008.82
2017-10-27T04:39:36.699Z,1008.87
2017-10-27T04:40:46.670Z,1008.78
2017-10-27T04:41:56.955Z,1008.84
2017-10-27T04:43:07.233Z,1008.84
2017-10-27T04:44:17.517Z,1008.76
2017-10-27T04:45:27.838Z,1008.79
2017-10-27T04:46:38.119Z,1008.79
2017-10-27T04:47:48.407Z,1008.79
2017-10-27T04:48:58.625Z,1008.79
2017-10-27T04:50:08.923Z,1008.79
2017-10-27T04:51:19.222Z,1008.83
2017-10-27T04:52:29.194Z,1008.91
2017-10-27T04:53:39.182Z,1008.89
2017-10-27T04:54:49.400Z,1008.89
2017-10-27T04:55:59.694Z,1008.89
2017-10-27T04:57:09.991Z,1008.92
2017-10-27T04:58:20.286Z,1008.93
2017-10-27T04:59:30.584Z,1008.89
2017-10-27T05:00:41.110Z,1008.87
2017-10-27T05:01:50.749Z,1008.8
2017-10-27T05:03:00.709Z,1008.87
2017-10-27T05:04:11.014Z,1008.86
2017-10-27T05:05:20.984Z,1008.97
2017-10-27T05:06:31.530Z,1008.89
2017-10-27T05:07:41.813Z,1008.93
2017-10-27T05:08:51.461Z,1008.85
2017-10-27T05:10:01.757Z,1008.83
2017-10-27T05:11:11.719Z,1008.74
2017-10-27T05:12:21.930Z,1008.9
2017-10-27T05:13:32.222Z,1008.88
2017-10-27T05:14:41.906Z,1008.72
2017-10-27T05:15:52.209Z,1008.85
2017-10-27T05:17:02.175Z,1008.74
2017-10-27T05:18:12.392Z,1008.79
2017-10-27T05:19:22.679Z,1008.84
2017-10-27T05:20:32.976Z,1008.75
2017-10-27T05:21:43.286Z,1008.7
2017-10-27T05:22:53.600Z,1008.79
2017-10-27T05:24:03.825Z,1008.76
2017-10-27T05:25:14.127Z,1008.62
2017-10-27T05:26:24.424Z,1008.76
2017-10-27T05:27:34.413Z,1008.7
2017-10-27T05:28:44.065Z,1008.84
2017-10-27T05:29:54.645Z,1008.71
2017-10-27T05:31:04.963Z,1008.71
2017-10-27T05:32:15.258Z,1008.75
2017-10-27T05:33:24.917Z,1008.74
2017-10-27T05:34:34.884Z,1008.79
2017-10-27T05:35:45.431Z,1008.68
2017-10-27T05:36:55.731Z,1008.76
2017-10-27T05:38:05.714Z,1008.7
2017-10-27T05:39:16.002Z,1008.79
2017-10-27T05:40:26.308Z,1008.68
2017-10-27T05:41:36.530Z,1008.7
2017-10-27T05:42:46.811Z,1008.7
2017-10-27T05:43:57.111Z,1008.68
2017-10-27T05:45:07.415Z,1008.74
2017-10-27T05:46:17.710Z,1008.71
2017-10-27T05:47:27.932Z,1008.73
2017-10-27T05:48:38.258Z,1008.85
2017-10-27T05:49:48.231Z,1008.78
2017-10-27T05:50:58.553Z,1008.83
2017-10-27T05:52:08.849Z,1008.69
2017-10-27T05:53:19.386Z,1008.75
2017-10-27T05:54:29.694Z,1008.84
2017-10-27T05:55:40.004Z,1008.68
2017-10-27T05:56:50.299Z,1008.8
2017-10-27T05:58:00.604Z,1008.77
2017-10-27T05:59:11.162Z,1008.66
2017-10-27T06:00:21.457Z,1008.75
2017-10-27T06:01:31.423Z,1008.82
2017-10-27T06:02:41.709Z,1008.86
2017-10-27T06:03:51.677Z,1008.81
2017-10-27T06:05:02.265Z,1008.77
2017-10-27T06:06:12.572Z,1008.89
2017-10-27T06:07:22.894Z,1008.82
2017-10-27T06:08:33.181Z,1008.77
2017-10-27T06:09:43.479Z,1008.74
2017-10-27T06:10:54.032Z,1008.83
2017-10-27T06:12:03.995Z,1008.85
2017-10-27T06:13:14.288Z,1008.73
2017-10-27T06:14:24.585Z,1008.77
2017-10-27T06:15:34.568Z,1008.7
2017-10-27T06:16:45.124Z,1008.66
2017-10-27T06:17:55.428Z,1008.71
2017-10-27T06:19:05.387Z,1008.71
2017-10-27T06:20:15.690Z,1008.69
2017-10-27T06:21:26.209Z,1008.7
2017-10-27T06:22:36.764Z,1008.78
2017-10-27T06:23:46.417Z,1008.93
2017-10-27T06:24:56.412Z,1008.85
2017-10-27T06:26:06.401Z,1008.79
2017-10-27T06:27:16.377Z,1008.99
2017-10-27T06:28:26.592Z,1008.92
2017-10-27T06:29:36.892Z,1008.9
2017-10-27T06:30:47.198Z,1008.88
2017-10-27T06:31:57.717Z,1008.81
2017-10-27T06:33:07.685Z,1008.85
2017-10-27T06:34:18.247Z,1008.86
2017-10-27T06:35:28.237Z,1008.84
2017-10-27T06:36:38.534Z,1008.96
2017-10-27T06:37:48.499Z,1009.17
2017-10-27T06:38:58.473Z,1009.04
2017-10-27T06:40:08.694Z,1009.03
2017-10-27T06:41:18.708Z,1008.99
2017-10-27T06:42:29.014Z,1009.04
2017-10-27T06:43:38.990Z,1008.97
2017-10-27T06:44:48.960Z,1009.01
2017-10-27T06:45:59.176Z,1009.04
2017-10-27T06:47:08.810Z,1008.96
2017-10-27T06:48:19.107Z,1009.01
2017-10-27T06:49:29.070Z,1008.94
2017-10-27T06:50:39.043Z,1009.03
2017-10-27T06:51:48.942Z,1008.95
2017-10-27T06:52:59.262Z,1009.07
2017-10-27T06:54:09.244Z,1009.01
2017-10-27T06:55:19.544Z,1009.16
2017-10-27T06:56:29.842Z,1009.04
2017-10-27T06:57:40.395Z,1008.97
2017-10-27T06:58:50.699Z,1009.04
2017-10-27T07:00:00.665Z,1009.02
2017-10-27T07:01:10.643Z,1008.97
2017-10-27T07:02:20.936Z,1009.02
2017-10-27T07:03:31.480Z,1009.04
2017-10-27T07:04:41.442Z,1009.03
2017-10-27T07:05:51.095Z,1009.04
2017-10-27T07:07:01.421Z,1008.96
2017-10-27T07:08:11.731Z,1009.19
2017-10-27T07:09:22.277Z,1009
2017-10-27T07:10:32.578Z,1009.06
2017-10-27T07:11:42.867Z,1008.96
2017-10-27T07:12:53.155Z,1009
2017-10-27T07:14:03.126Z,1008.9
2017-10-27T07:15:13.696Z,1009
2017-10-27T07:16:23.983Z,1009.01
2017-10-27T07:17:34.269Z,1008.96
2017-10-27T07:18:44.573Z,1008.96
2017-10-27T07:19:54.549Z,1008.93
2017-10-27T07:21:05.130Z,1008.91
2017-10-27T07:22:15.416Z,1008.95
2017-10-27T07:23:25.716Z,1009.01
2017-10-27T07:24:35.690Z,1008.94
2017-10-27T07:25:45.983Z,1009
2017-10-27T07:26:56.530Z,1009.12
2017-10-27T07:28:06.502Z,1009.23
2017-10-27T07:29:16.796Z,1009.06
2017-10-27T07:30:27.102Z,1009.04
2017-10-27T07:31:37.068Z,1009
2017-10-27T07:32:47.614Z,1009.03
2017-10-27T07:33:57.955Z,1008.94
2017-10-27T07:35:08.257Z,1009.04
2017-10-27T07:36:18.561Z,1008.99
2017-10-27T07:37:28.531Z,1009.02
2017-10-27T07:38:39.130Z,1009.03
2017-10-27T07:39:49.427Z,1009.11
2017-10-27T07:40:59.752Z,1009.36
2017-10-27T07:42:10.057Z,1009.04
2017-10-27T07:43:20.368Z,1009.11
2017-10-27T07:44:30.946Z,1009.03
2017-10-27T07:45:41.234Z,1009.17
2017-10-27T07:46:51.200Z,1009.18
2017-10-27T07:48:01.537Z,1009.13
2017-10-27T07:49:11.514Z,1009.05
2017-10-27T07:50:21.729Z,1009.13
2017-10-27T07:51:32.022Z,1009.03
2017-10-27T07:52:42.330Z,1009.07
2017-10-27T07:53:52.634Z,1009.21
2017-10-27T07:55:02.967Z,1009.35
2017-10-27T07:56:13.205Z,1009.21
2017-10-27T07:57:23.510Z,1009.18
2017-10-27T07:58:33.804Z,1009.25
2017-10-27T07:59:44.135Z,1009.13
2017-10-27T08:00:54.433Z,1009.12
2017-10-27T08:02:04.995Z,1009.18
2017-10-27T08:03:15.303Z,1009.09
2017-10-27T08:04:25.304Z,1009.2
2017-10-27T08:05:35.595Z,1009.33
2017-10-27T08:06:45.888Z,1009.25
2017-10-27T08:07:56.447Z,1009.13
2017-10-27T08:09:06.755Z,1009.16
2017-10-27T08:10:17.061Z,1009.27
2017-10-27T08:11:27.386Z,1009.14
2017-10-27T08:12:37.700Z,1009.27
2017-10-27T08:13:47.928Z,1009.24
2017-10-27T08:14:57.893Z,1009.25
2017-10-27T08:16:08.205Z,1009.2
2017-10-27T08:17:18.512Z,1009.17
2017-10-27T08:18:28.807Z,1009.13
2017-10-27T08:19:39.357Z,1009.2
2017-10-27T08:20:49.679Z,1009.34
2017-10-27T08:22:00.036Z,1009.32
2017-10-27T08:23:10.339Z,1009.39
2017-10-27T08:24:20.317Z,1009.49
2017-10-27T08:25:30.871Z,1009.29
2017-10-27T08:26:41.172Z,1009.47
2017-10-27T08:27:51.489Z,1009.43
2017-10-27T08:29:01.470Z,1009.41
2017-10-27T08:30:11.777Z,1009.44
2017-10-27T08:31:22.003Z,1009.42
2017-10-27T08:32:32.310Z,1009.25
2017-10-27T08:33:42.616Z,1009.38
2017-10-27T08:34:52.595Z,1009.27
2017-10-27T08:36:02.893Z,1009.54
2017-10-27T08:37:13.442Z,1009.25
2017-10-27T08:38:23.407Z,1009.32
2017-10-27T08:39:33.073Z,1009.41
2017-10-27T08:40:43.045Z,1009.26
2017-10-27T08:41:53.348Z,1009.67
2017-10-27T08:43:03.566Z,1009.3
2017-10-27T08:44:13.858Z,1009.44
2017-10-27T08:45:24.154Z,1009.36
2017-10-27T08:46:34.446Z,1009.4
2017-10-27T08:47:44.760Z,1009.46
2017-10-27T08:48:55.306Z,1009.36
2017-10-27T08:50:05.591Z,1009.28
2017-10-27T08:51:15.568Z,1009.22
2017-10-27T08:52:25.916Z,1009.45
2017-10-27T08:53:36.225Z,1009.3
2017-10-27T08:54:46.796Z,1009.25
2017-10-27T08:55:57.117Z,1009.27
2017-10-27T08:57:07.415Z,1009.3
2017-10-27T08:58:17.712Z,1009.31
2017-10-27T08:59:27.729Z,1009.11
2017-10-27T09:00:37.942Z,1009.25
2017-10-27T09:01:47.944Z,1009.37
2017-10-27T09:02:57.617Z,1009.42
2017-10-27T09:04:07.936Z,1009.42
2017-10-27T09:05:17.914Z,1009.16
2017-10-27T09:06:28.473Z,1009.27
2017-10-27T09:07:38.445Z,1009.54
2017-10-27T09:08:48.766Z,1009.36
2017-10-27T09:09:59.084Z,1009.19
2017-10-27T09:11:09.398Z,1009.26
2017-10-27T09:12:19.696Z,1009.43
2017-10-27T09:13:29.655Z,1009.43
2017-10-27T09:14:39.638Z,1009.54
2017-10-27T09:15:49.954Z,1009.24
2017-10-27T09:17:00.260Z,1009.21
2017-10-27T09:18:10.895Z,1009.33
2017-10-27T09:19:21.214Z,1009.41
2017-10-27T09:20:31.514Z,1009.11
2017-10-27T09:21:41.803Z,1009.64
2017-10-27T09:22:51.804Z,1009.22
2017-10-27T09:24:02.037Z,1009.35
2017-10-27T09:25:12.328Z,1009.38
2017-10-27T09:26:22.620Z,1009.32
2017-10-27T09:27:32.293Z,1009.29
2017-10-27T09:28:42.592Z,1009.31
2017-10-27T09:29:52.870Z,1009.39
2017-10-27T09:31:03.437Z,1009.44
2017-10-27T09:32:13.766Z,1009.49
2017-10-27T09:33:23.732Z,1009.28
2017-10-27T09:34:34.018Z,1009.62
2017-10-27T09:35:44.239Z,1009.51
2017-10-27T09:36:54.549Z,1009.48
2017-10-27T09:38:04.858Z,1009.51
2017-10-27T09:39:15.154Z,1009.55
2017-10-27T09:40:25.128Z,1009.52
2017-10-27T09:41:35.674Z,1009.71
2017-10-27T09:42:45.655Z,1009.51
2017-10-27T09:43:55.974Z,1009.57
2017-10-27T09:45:05.950Z,1009.62
2017-10-27T09:46:15.267Z,1009.62
2017-10-27T09:47:25.503Z,1009.66
2017-10-27T09:48:35.811Z,1009.82
2017-10-27T09:49:46.127Z,1009.7
2017-10-27T09:50:55.772Z,1009.59
2017-10-27T09:52:05.757Z,1009.66
2017-10-27T09:53:16.328Z,1009.63
2017-10-27T09:54:26.305Z,1009.74
2017-10-27T09:55:36.605Z,1009.88
2017-10-27T09:56:46.583Z,1009.58
2017-10-27T09:57:56.898Z,1009.56
2017-10-27T09:59:07.446Z,1009.68
2017-10-27T10:00:17.747Z,1009.75
2017-10-27T10:01:27.388Z,1009.9
2017-10-27T10:02:37.695Z,1009.8
2017-10-27T10:03:47.999Z,1009.9
2017-10-27T10:04:58.564Z,1009.71
2017-10-27T10:06:08.871Z,1009.69
2017-10-27T10:07:19.179Z,1009.86
2017-10-27T10:08:29.488Z,1009.72
2017-10-27T10:09:39.784Z,1009.67
2017-10-27T10:10:50.342Z,1009.63
2017-10-27T10:12:00.654Z,1009.7
2017-10-27T10:13:10.980Z,1009.78
2017-10-27T10:14:21.281Z,1009.7
2017-10-27T10:15:31.578Z,1009.92
2017-10-27T10:16:41.824Z,1009.83
2017-10-27T10:17:51.793Z,1009.79
2017-10-27T10:19:02.096Z,1009.71
2017-10-27T10:20:12.075Z,1009.78
2017-10-27T10:21:22.362Z,1009.89
2017-10-27T10:22:32.580Z,1009.89
2017-10-27T10:23:42.901Z,1009.95
2017-10-27T10:24:53.220Z,1009.85
2017-10-27T10:26:03.559Z,1010
2017-10-27T10:27:13.517Z,1009.86
2017-10-27T10:28:24.127Z,1010.07
2017-10-27T10:29:34.423Z,1010.01
2017-10-27T10:30:44.732Z,1010.07
2017-10-27T10:31:55.027Z,1010.18
2017-10-27T10:33:05.322Z,1010.09
2017-10-27T10:34:15.883Z,1010.21
2017-10-27T10:35:26.192Z,1010.19
2017-10-27T10:36:36.161Z,1010.19
2017-10-27T10:37:46.131Z,1010.22
2017-10-27T10:38:56.420Z,1010.17
2017-10-27T10:40:06.980Z,1010.16
2017-10-27T10:41:17.281Z,1010.11
2017-10-27T10:42:27.270Z,1010.23
2017-10-27T10:43:37.577Z,1010.36
2017-10-27T10:44:47.885Z,1010.3
2017-10-27T10:45:58.448Z,1010.28
2017-10-27T10:47:08.412Z,1010.36
2017-10-27T10:48:18.726Z,1010.43
2017-10-27T10:49:29.018Z,1010.51
2017-10-27T10:50:39.006Z,1010.6
2017-10-27T10:51:48.912Z,1010.5
2017-10-27T10:52:59.221Z,1010.47
2017-10-27T10:54:09.553Z,1010.51
2017-10-27T10:55:19.218Z,1010.57
2017-10-27T10:56:29.541Z,1010.67
2017-10-27T10:57:39.435Z,1010.49
2017-10-27T10:58:49.424Z,1010.6
2017-10-27T10:59:59.712Z,1010.61
2017-10-27T11:01:09.376Z,1010.71
2017-10-27T11:02:19.689Z,1010.77
2017-10-27T11:03:29.964Z,1010.57
2017-10-27T11:04:39.929Z,1010.52
2017-10-27T11:05:50.228Z,1010.65
2017-10-27T11:07:00.507Z,1010.53
2017-10-27T11:08:10.814Z,1010.62
2017-10-27T11:09:21.375Z,1010.57
2017-10-27T11:10:31.702Z,1010.66
2017-10-27T11:11:42.010Z,1010.59
2017-10-27T11:12:52.300Z,1010.54
2017-10-27T11:14:02.605Z,1010.69
2017-10-27T11:15:13.203Z,1010.66
2017-10-27T11:16:23.188Z,1010.66
2017-10-27T11:17:33.492Z,1010.64
2017-10-27T11:18:43.787Z,1010.84
2017-10-27T11:19:54.084Z,1010.64
2017-10-27T11:21:04.672Z,1010.59
2017-10-27T11:22:14.963Z,1010.83
2017-10-27T11:23:24.611Z,1010.81
2017-10-27T11:24:34.611Z,1010.92
2017-10-27T11:25:44.591Z,1010.79
2017-10-27T11:26:55.140Z,1010.75
2017-10-27T11:28:05.445Z,1010.84
2017-10-27T11:29:15.764Z,1010.83
2017-10-27T11:30:25.728Z,1010.7
2017-10-27T11:31:36.051Z,1010.81
2017-10-27T11:32:46.590Z,1010.81
2017-10-27T11:33:56.575Z,1010.78
2017-10-27T11:35:06.892Z,1010.86
2017-10-27T11:36:17.198Z,1011
2017-10-27T11:37:27.503Z,1010.93
2017-10-27T11:38:37.735Z,1010.91
2017-10-27T11:39:48.041Z,1011.02
2017-10-27T11:40:58.029Z,1010.95
2017-10-27T11:42:08.337Z,1010.81
2017-10-27T11:43:18.308Z,1010.97
2017-10-27T11:44:28.529Z,1011.07
2017-10-27T11:45:38.507Z,1010.86
2017-10-27T11:46:48.494Z,1011.01
2017-10-27T11:47:58.799Z,1010.98
2017-10-27T11:49:09.104Z,1010.97
2017-10-27T11:50:19.653Z,1011.02
2017-10-27T11:51:29.978Z,1010.98
2017-10-27T11:52:40.274Z,1011.04
2017-10-27T11:53:50.572Z,1010.99
2017-10-27T11:55:00.868Z,1011.08
2017-10-27T11:56:10.771Z,1011.11
2017-10-27T11:57:21.084Z,1011.01
2017-10-27T11:58:31.390Z,1011.11
2017-10-27T11:59:41.697Z,1011.11
2017-10-27T12:00:51.695Z,1011.12
2017-10-27T12:02:02.256Z,1011.41
2017-10-27T12:03:12.558Z,1011.35
2017-10-27T12:04:22.533Z,1011.35
2017-10-27T12:05:32.838Z,1011.19
2017-10-27T12:06:42.798Z,1011.18
2017-10-27T12:07:53.029Z,1011.2
2017-10-27T12:09:03.362Z,1011.33
2017-10-27T12:10:13.675Z,1011.1
2017-10-27T12:11:23.982Z,1011.33
2017-10-27T12:12:34.533Z,1011.22
2017-10-27T12:13:45.094Z,1011.22
2017-10-27T12:14:55.392Z,1011.35
2017-10-27T12:16:05.360Z,1011.32
2017-10-27T12:17:15.332Z,1011.61
2017-10-27T12:18:25.649Z,1011.34
2017-10-27T12:19:36.206Z,1011.35
2017-10-27T12:20:46.502Z,1011.39
2017-10-27T12:21:56.795Z,1011.34
2017-10-27T12:23:07.089Z,1011.41
2017-10-27T12:24:17.396Z,1011.4
2017-10-27T12:25:27.643Z,1011.28
2017-10-27T12:26:37.944Z,1011.39
2017-10-27T12:27:47.583Z,1011.65
2017-10-27T12:28:57.873Z,1011.55
2017-10-27T12:30:07.862Z,1011.59
2017-10-27T12:31:18.406Z,1011.61
2017-10-27T12:32:28.689Z,1011.68
2017-10-27T12:33:39.003Z,1011.62
2017-10-27T12:34:49.000Z,1011.62
2017-10-27T12:35:59.297Z,1011.58
2017-10-27T12:37:09.892Z,1011.72
2017-10-27T12:38:20.204Z,1011.55
2017-10-27T12:39:30.186Z,1011.58
2017-10-27T12:40:40.160Z,1011.62
2017-10-27T12:41:50.458Z,1011.83
2017-10-27T12:43:01.006Z,1011.65
2017-10-27T12:44:11.320Z,1011.86
2017-10-27T12:45:21.286Z,1011.79
2017-10-27T12:46:31.285Z,1011.75
2017-10-27T12:47:41.595Z,1012
2017-10-27T12:48:52.149Z,1011.84
2017-10-27T12:50:02.116Z,1011.91
2017-10-27T12:51:12.427Z,1011.97
2017-10-27T12:52:22.754Z,1011.97
2017-10-27T12:53:33.047Z,1012.02
2017-10-27T12:54:43.607Z,1011.98
2017-10-27T12:55:53.908Z,1012.06
2017-10-27T12:57:04.204Z,1012.08
2017-10-27T12:58:14.165Z,1012.13
2017-10-27T12:59:24.464Z,1012.21
2017-10-27T13:00:34.680Z,1012.24
2017-10-27T13:01:44.977Z,1012.21
2017-10-27T13:02:55.281Z,1012.18
2017-10-27T13:04:05.583Z,1012.26
2017-10-27T13:05:15.560Z,1012.18
2017-10-27T13:06:26.120Z,1012.25
2017-10-27T13:07:36.447Z,1012.23
2017-10-27T13:08:46.397Z,1012.23
2017-10-27T13:09:56.369Z,1012.24
2017-10-27T13:11:06.657Z,1012.19
2017-10-27T13:12:17.246Z,1012.31
2017-10-27T13:13:27.576Z,1012.4
2017-10-27T13:14:37.872Z,1012.34
2017-10-27T13:15:48.177Z,1012.44
2017-10-27T13:16:58.470Z,1012.39
2017-10-27T13:18:08.700Z,1012.4
2017-10-27T13:19:18.690Z,1012.36
2017-10-27T13:20:28.677Z,1012.36
2017-10-27T13:21:38.975Z,1012.31
2017-10-27T13:22:49.282Z,1012.43
2017-10-27T13:23:59.499Z,1012.65
2017-10-27T13:25:08.822Z,1012.47
2017-10-27T13:26:18.794Z,1012.64
2017-10-27T13:27:28.789Z,1012.63
2017-10-27T13:28:39.099Z,1012.66
2017-10-27T13:29:49.652Z,1012.66
2017-10-27T13:30:59.951Z,1012.76
2017-10-27T13:32:10.297Z,1012.67
2017-10-27T13:33:20.273Z,1012.7
2017-10-27T13:34:30.233Z,1012.73
2017-10-27T13:35:40.774Z,1012.72
2017-10-27T13:36:51.075Z,1012.72
2017-10-27T13:38:01.063Z,1012.74
2017-10-27T13:39:11.356Z,1012.68
2017-10-27T13:40:21.337Z,1012.82
2017-10-27T13:41:31.568Z,1012.77
2017-10-27T13:42:41.889Z,1012.83
2017-10-27T13:43:51.862Z,1012.91
2017-10-27T13:45:01.838Z,1012.9
2017-10-27T13:46:11.810Z,1012.92
2017-10-27T13:47:22.371Z,1013.04
2017-10-27T13:48:32.683Z,1012.92
2017-10-27T13:49:42.987Z,1012.97
2017-10-27T13:50:52.957Z,1013.13
2017-10-27T13:52:02.610Z,1013.05
2017-10-27T13:53:13.164Z,1013.13
2017-10-27T13:54:23.447Z,1013.16
2017-10-27T13:55:33.422Z,1013.21
2017-10-27T13:56:43.742Z,1013.15
2017-10-27T13:57:54.049Z,1013.13
2017-10-27T13:59:04.260Z,1013.21
2017-10-27T14:00:14.233Z,1013.09
2017-10-27T14:01:24.533Z,1013.19
2017-10-27T14:02:34.849Z,1013.26
2017-10-27T14:03:45.151Z,1013.27
2017-10-27T14:04:55.378Z,1013.29
2017-10-27T14:06:05.696Z,1013.33
2017-10-27T14:07:15.678Z,1013.33
2017-10-27T14:08:25.968Z,1013.24
2017-10-27T14:09:35.936Z,1013.35
2017-10-27T14:10:45.830Z,1013.34
2017-10-27T14:11:55.807Z,1013.41
2017-10-27T14:13:06.114Z,1013.43